Terminal Aerodrome Forecast
Issued by NWS Knoxville/Tri Cities, TN

Home | Current Version | Previous Version | Text Only | Print | Product List | Glossary On
Versions: 1 2 3 4 5 6 7 8 9 10 11 12 13 14 15 16 17 18 19 20 21 22 23 24 25 26 27 28 29 30 31 32 33
000
FTUS44 KMRX 221733
TAFTYS
TAF
KTYS 221733Z 2218/2318 VRB03KT P6SM VCTS SCT035CB BKN100
     FM230100 VRB03KT P6SM FEW025 BKN120
     FM231500 23007KT P6SM VCTS SCT035CB BKN120=

USA.gov is the U.S. government's official web portal to all federal, state and local government web resources and services.